createdAt,value
2023-04-15T00:02:59.419Z,4.30
2023-04-15T00:06:01.544Z,3.47
2023-04-15T00:09:03.891Z,3.20
2023-04-15T00:12:05.572Z,6.22
2023-04-15T00:15:08.143Z,5.47
2023-04-15T00:18:09.663Z,5.28
2023-04-15T00:21:11.049Z,5.20
2023-04-15T00:24:12.362Z,4.63
2023-04-15T00:27:13.666Z,3.60
2023-04-15T00:30:15.137Z,4.22
2023-04-15T00:33:16.545Z,5.35
2023-04-15T00:36:17.844Z,9.55
2023-04-15T00:39:19.157Z,4.30
2023-04-15T00:42:21.655Z,3.20
2023-04-15T00:45:23.329Z,2.85
2023-04-15T00:48:24.696Z,4.28
2023-04-15T00:51:26.029Z,4.63
2023-04-15T00:54:27.468Z,5.30
2023-04-15T00:57:29.066Z,4.05
2023-04-15T01:00:31.160Z,7.03
2023-04-15T01:03:32.694Z,3.63
2023-04-15T01:06:34.197Z,4.90
2023-04-15T01:09:35.544Z,3.00
2023-04-15T01:12:37.734Z,4.10
2023-04-15T01:15:39.064Z,4.30
2023-04-15T01:18:41.503Z,4.30
2023-04-15T01:21:42.815Z,5.72
2023-04-15T01:24:52.196Z,4.03
2023-04-15T01:27:53.938Z,3.88
2023-04-15T01:31:14.607Z,3.78
2023-04-15T01:34:16.249Z,3.80
2023-04-15T01:37:17.604Z,4.15
2023-04-15T01:40:18.846Z,3.85
2023-04-15T01:43:20.088Z,3.63
2023-04-15T01:46:21.504Z,3.58
2023-04-15T01:49:23.111Z,4.82
2023-04-15T01:52:24.470Z,3.67
2023-04-15T01:55:26.129Z,4.10
2023-04-15T01:58:27.397Z,2.75
2023-04-15T02:01:28.753Z,3.05
2023-04-15T02:04:30.110Z,2.95
2023-04-15T02:07:32.352Z,3.47
2023-04-15T02:10:33.601Z,4.32
2023-04-15T02:13:34.952Z,2.55
2023-04-15T02:16:36.588Z,4.70
2023-04-15T02:19:39.217Z,2.30
2023-04-15T02:22:40.505Z,7.68
2023-04-15T02:25:41.786Z,4.45
2023-04-15T02:28:43.151Z,5.22
2023-04-15T02:31:45.157Z,4.47
2023-04-15T02:34:46.494Z,4.88
2023-04-15T02:37:47.773Z,6.03
2023-04-15T02:40:50.276Z,3.30
2023-04-15T02:43:51.570Z,4.60
2023-04-15T02:46:54.788Z,5.93
2023-04-15T02:49:56.279Z,4.57
2023-04-15T02:52:57.679Z,3.78
2023-04-15T02:55:59.979Z,5.50
2023-04-15T02:59:01.934Z,3.92
2023-04-15T03:02:03.656Z,5.28
2023-04-15T03:05:05.953Z,4.72
2023-04-15T03:08:07.476Z,4.03
2023-04-15T03:11:08.811Z,3.30
2023-04-15T03:14:10.332Z,5.13
2023-04-15T03:17:11.578Z,5.35
2023-04-15T03:20:13.252Z,5.72
2023-04-15T03:23:14.528Z,8.85
2023-04-15T03:26:28.984Z,5.07
2023-04-15T03:29:30.643Z,6.40
2023-04-15T03:32:32.380Z,4.63
2023-04-15T03:35:33.758Z,2.83
2023-04-15T03:38:35.341Z,4.82
2023-04-15T03:41:36.792Z,5.25
2023-04-15T03:44:38.313Z,5.63
2023-04-15T03:47:39.624Z,3.55
2023-04-15T03:50:40.953Z,4.65
2023-04-15T03:53:42.253Z,4.20
2023-04-15T03:56:43.536Z,2.83
2023-04-15T03:59:44.865Z,4.75
2023-04-15T04:02:46.359Z,4.03
2023-04-15T04:05:47.807Z,4.88
2023-04-15T04:08:49.115Z,3.88
2023-04-15T04:11:50.427Z,5.85
2023-04-15T04:14:52.020Z,3.40
2023-04-15T04:17:53.400Z,4.20
2023-04-15T04:20:54.895Z,4.82
2023-04-15T04:23:56.713Z,4.25
2023-04-15T04:26:58.120Z,4.47
2023-04-15T04:29:59.480Z,4.40
2023-04-15T04:33:00.830Z,6.13
2023-04-15T04:36:02.252Z,3.42
2023-04-15T04:39:04.054Z,6.55
2023-04-15T04:42:05.696Z,4.70
2023-04-15T04:45:07.377Z,4.45
2023-04-15T04:48:10.116Z,4.32
2023-04-15T04:51:11.410Z,3.35
2023-04-15T04:54:12.882Z,5.90
2023-04-15T04:57:14.203Z,6.03
2023-04-15T05:00:15.538Z,6.32
2023-04-15T05:03:17.147Z,5.30
2023-04-15T05:06:18.863Z,5.90
2023-04-15T05:09:20.161Z,5.05
2023-04-15T05:12:21.571Z,3.60
2023-04-15T05:15:22.980Z,5.50
2023-04-15T05:18:24.440Z,4.30
2023-04-15T05:21:26.167Z,5.03
2023-04-15T05:24:27.493Z,5.63
2023-04-15T05:27:28.811Z,6.50
2023-04-15T05:30:30.061Z,5.72
2023-04-15T05:33:31.358Z,4.47
2023-04-15T05:36:32.930Z,5.80
2023-04-15T05:39:34.244Z,4.50
2023-04-15T05:42:35.691Z,4.88
2023-04-15T05:45:36.984Z,8.18
2023-04-15T05:48:38.263Z,5.63
2023-04-15T05:51:39.523Z,4.50
2023-04-15T05:54:41.009Z,4.72
2023-04-15T05:57:42.298Z,3.95
2023-04-15T06:00:50.695Z,4.90
2023-04-15T06:03:52.196Z,7.35
2023-04-15T06:06:53.761Z,5.45
2023-04-15T06:09:55.041Z,6.72
2023-04-15T06:12:56.539Z,7.30
2023-04-15T06:15:58.032Z,5.60
2023-04-15T06:18:59.450Z,7.30
2023-04-15T06:22:01.468Z,10.40
2023-04-15T06:25:03.256Z,7.97
2023-04-15T06:28:04.579Z,7.72
2023-04-15T06:31:05.971Z,10.25
2023-04-15T06:34:11.132Z,10.90
2023-04-15T06:37:16.148Z,7.00
2023-04-15T06:40:18.018Z,6.28
2023-04-15T06:43:20.175Z,8.65
2023-04-15T06:46:22.173Z,7.30
2023-04-15T06:49:26.206Z,8.88
2023-04-15T06:52:27.465Z,9.02
2023-04-15T06:55:28.798Z,7.65
2023-04-15T06:58:34.260Z,5.50
2023-04-15T07:01:37.730Z,7.35
2023-04-15T07:04:40.260Z,5.07
2023-04-15T07:07:42.155Z,7.50
2023-04-15T07:10:43.459Z,8.50
2023-04-15T07:13:44.945Z,5.78
2023-04-15T07:16:46.319Z,9.25
2023-04-15T07:19:47.774Z,6.28
2023-04-15T07:22:49.464Z,5.70
2023-04-15T07:25:51.537Z,6.78
2023-04-15T07:28:52.857Z,8.60
2023-04-15T07:31:54.146Z,7.43
2023-04-15T07:34:55.428Z,6.03
2023-04-15T07:37:56.923Z,5.80
2023-04-15T07:40:58.244Z,8.77
2023-04-15T07:43:59.541Z,5.68
2023-04-15T07:47:01.975Z,6.85
2023-04-15T07:50:03.465Z,6.47
2023-04-15T07:53:05.663Z,5.03
2023-04-15T07:56:07.270Z,5.20
2023-04-15T07:59:09.836Z,5.25
2023-04-15T08:02:11.349Z,5.55
2023-04-15T08:05:13.920Z,5.63
2023-04-15T08:08:15.237Z,6.68
2023-04-15T08:11:17.028Z,3.88
2023-04-15T08:14:18.286Z,6.80
2023-04-15T08:17:19.540Z,5.00
2023-04-15T08:20:20.962Z,5.82
2023-04-15T08:23:22.548Z,4.50
2023-04-15T08:26:23.849Z,4.72
2023-04-15T08:29:25.225Z,4.88
2023-04-15T08:32:27.162Z,3.97
2023-04-15T08:35:28.431Z,4.22
2023-04-15T08:38:29.810Z,5.13
2023-04-15T08:41:40.599Z,3.85
2023-04-15T08:44:42.546Z,4.25
2023-04-15T08:47:44.610Z,3.92
2023-04-15T08:50:46.576Z,4.43
2023-04-15T08:53:48.120Z,4.72
2023-04-15T08:56:49.864Z,5.57
2023-04-15T08:59:51.556Z,4.75
2023-04-15T09:02:53.038Z,4.70
2023-04-15T09:05:55.788Z,4.78
2023-04-15T09:08:57.569Z,5.10
2023-04-15T09:11:58.816Z,4.72
2023-04-15T09:15:00.387Z,5.30
2023-04-15T09:18:01.734Z,4.07
2023-04-15T09:21:06.803Z,4.85
2023-04-15T09:24:08.128Z,5.57
2023-04-15T09:27:09.510Z,5.05
2023-04-15T09:30:11.711Z,6.55
2023-04-15T09:33:14.461Z,5.10
2023-04-15T09:36:16.054Z,5.07
2023-04-15T09:39:17.452Z,4.75
2023-04-15T09:42:25.132Z,4.70
2023-04-15T09:45:29.351Z,4.53
2023-04-15T09:48:31.227Z,4.35
2023-04-15T09:51:35.830Z,4.63
2023-04-15T09:54:38.099Z,4.22
2023-04-15T09:57:41.129Z,3.70
2023-04-15T10:00:42.458Z,4.18
2023-04-15T10:03:44.710Z,3.53
2023-04-15T10:06:46.461Z,3.60
2023-04-15T10:09:49.064Z,4.00
2023-04-15T10:12:52.295Z,3.95
2023-04-15T10:16:00.488Z,3.78
2023-04-15T10:19:02.179Z,2.80
2023-04-15T10:22:03.664Z,4.03
2023-04-15T10:25:05.797Z,3.05
2023-04-15T10:28:08.876Z,3.15
2023-04-15T10:31:15.005Z,4.28
2023-04-15T10:34:16.662Z,3.33
2023-04-15T10:37:34.576Z,4.32
2023-04-15T10:40:35.960Z,3.95
2023-04-15T10:43:37.370Z,3.55
2023-04-15T10:46:40.338Z,5.53
2023-04-15T10:49:58.364Z,3.33
2023-04-15T10:53:03.787Z,2.97
2023-04-15T10:56:05.502Z,2.78
2023-04-15T10:59:07.447Z,2.90
2023-04-15T11:02:08.879Z,3.35
2023-04-15T11:05:11.418Z,2.03
2023-04-15T11:08:13.268Z,1.98
2023-04-15T11:11:14.696Z,3.00
2023-04-15T11:14:18.972Z,2.22
2023-04-15T11:17:29.690Z,2.65
2023-04-15T11:20:32.194Z,2.97
2023-04-15T11:23:34.282Z,2.22
2023-04-15T11:26:35.593Z,2.75
2023-04-15T11:29:36.896Z,2.58
2023-04-15T11:32:42.161Z,2.10
2023-04-15T11:35:44.052Z,1.90
2023-04-15T11:38:47.282Z,2.35
2023-04-15T11:41:48.768Z,4.85
2023-04-15T11:44:50.186Z,3.35
2023-04-15T11:47:51.891Z,2.05
2023-04-15T11:50:57.879Z,3.03
2023-04-15T11:53:59.217Z,2.63
2023-04-15T11:57:02.751Z,3.17
2023-04-15T12:00:05.200Z,5.35
2023-04-15T12:03:13.025Z,2.80
2023-04-15T12:06:19.084Z,5.93
2023-04-15T12:09:21.307Z,4.47
2023-04-15T12:12:24.863Z,3.03
2023-04-15T12:15:26.180Z,3.67
2023-04-15T12:18:27.467Z,6.07
2023-04-15T12:21:34.588Z,4.50
2023-04-15T12:24:37.036Z,6.30
2023-04-15T12:27:38.328Z,3.08
2023-04-15T12:30:48.854Z,4.60
2023-04-15T12:36:51.497Z,4.97
2023-04-15T12:39:53.943Z,4.05
2023-04-15T12:42:56.996Z,2.30
2023-04-15T12:45:58.399Z,3.35
2023-04-15T12:48:59.710Z,2.92
2023-04-15T12:52:01.683Z,2.95
2023-04-15T12:55:03.087Z,3.05
2023-04-15T12:58:04.342Z,2.85
2023-04-15T13:01:06.512Z,3.92
2023-04-15T13:04:08.199Z,2.15
2023-04-15T13:07:09.963Z,1.90
2023-04-15T13:10:11.263Z,1.70
2023-04-15T13:13:12.616Z,2.30
2023-04-15T13:16:14.101Z,1.77
2023-04-15T13:19:15.771Z,2.03
2023-04-15T13:22:17.131Z,2.03
2023-04-15T13:25:18.548Z,2.63
2023-04-15T13:28:23.170Z,3.53
2023-04-15T13:31:24.503Z,3.10
2023-04-15T13:34:26.001Z,4.57
2023-04-15T13:37:28.118Z,2.53
2023-04-15T13:40:29.500Z,3.13
2023-04-15T13:43:31.627Z,3.25
2023-04-15T13:46:32.921Z,2.10
2023-04-15T13:49:34.310Z,3.92
2023-04-15T13:52:35.560Z,3.63
2023-04-15T13:55:38.859Z,3.45
2023-04-15T13:58:40.900Z,2.95
2023-04-15T14:01:43.771Z,2.58
2023-04-15T14:04:45.108Z,3.15
2023-04-15T14:07:46.334Z,3.30
2023-04-15T14:10:49.349Z,4.90
2023-04-15T14:13:50.958Z,3.40
2023-04-15T14:16:52.534Z,2.80
2023-04-15T14:19:53.921Z,3.78
2023-04-15T14:22:55.425Z,2.10
2023-04-15T14:25:56.742Z,2.20
2023-04-15T14:28:58.086Z,2.85
2023-04-15T14:32:03.953Z,2.70
2023-04-15T14:35:13.847Z,1.92
2023-04-15T14:38:15.155Z,2.22
2023-04-15T14:41:17.196Z,2.45
2023-04-15T14:44:18.475Z,2.15
2023-04-15T14:47:19.938Z,3.85
2023-04-15T14:50:21.426Z,1.92
2023-04-15T14:53:22.794Z,1.80
2023-04-15T14:56:24.055Z,2.20
2023-04-15T14:59:25.322Z,2.67
2023-04-15T15:02:38.118Z,1.38
2023-04-15T15:05:42.330Z,2.17
2023-04-15T15:08:43.686Z,2.60
2023-04-15T15:11:45.034Z,3.05
2023-04-15T15:14:46.343Z,2.10
2023-04-15T15:17:47.655Z,2.28
2023-04-15T15:20:49.428Z,2.55
2023-04-15T15:23:50.862Z,2.45
2023-04-15T15:26:52.172Z,1.77
2023-04-15T15:29:53.487Z,2.08
2023-04-15T15:32:54.824Z,2.10
2023-04-15T15:35:57.332Z,2.03
2023-04-15T15:38:59.809Z,1.95
2023-04-15T15:42:01.363Z,4.22
2023-04-15T15:45:03.646Z,2.08
2023-04-15T15:48:05.322Z,1.35
2023-04-15T15:51:06.772Z,2.60
2023-04-15T15:54:08.076Z,1.95
2023-04-15T15:57:10.262Z,3.78
2023-04-15T16:00:13.036Z,3.42
2023-04-15T16:03:15.111Z,2.67
2023-04-15T16:06:16.576Z,2.33
2023-04-15T16:09:18.017Z,2.85
2023-04-15T16:12:19.435Z,2.90
2023-04-15T16:15:20.853Z,2.00
2023-04-15T16:18:22.123Z,2.30
2023-04-15T16:21:24.870Z,2.42
2023-04-15T16:24:27.167Z,2.42
2023-04-15T16:27:28.436Z,3.00
2023-04-15T16:30:30.085Z,3.17
2023-04-15T16:33:32.102Z,4.75
2023-04-15T16:36:34.463Z,3.33
2023-04-15T16:39:35.792Z,3.42
2023-04-15T16:42:37.126Z,3.88
2023-04-15T16:45:38.807Z,3.88
2023-04-15T16:48:40.164Z,4.45
2023-04-15T16:51:41.420Z,3.90
2023-04-15T16:54:42.811Z,3.47
2023-04-15T16:58:02.772Z,3.17
2023-04-15T17:01:05.330Z,3.55
2023-04-15T17:04:07.187Z,3.17
2023-04-15T17:07:11.573Z,3.10
2023-04-15T17:10:16.186Z,2.22
2023-04-15T17:13:17.432Z,4.00
2023-04-15T17:16:18.726Z,3.05
2023-04-15T17:19:20.009Z,4.38
2023-04-15T17:22:21.327Z,3.45
2023-04-15T17:25:22.801Z,3.33
2023-04-15T17:28:24.057Z,3.75
2023-04-15T17:31:25.550Z,3.45
2023-04-15T17:34:28.147Z,2.47
2023-04-15T17:37:49.401Z,3.05
2023-04-15T17:40:50.665Z,5.32
2023-04-15T17:43:51.947Z,4.60
2023-04-15T17:46:53.230Z,2.47
2023-04-15T17:49:54.544Z,4.63
2023-04-15T17:52:55.924Z,3.50
2023-04-15T17:55:57.494Z,3.63
2023-04-15T17:59:00.361Z,4.60
2023-04-15T18:02:01.760Z,4.20
2023-04-15T18:05:03.357Z,4.50
2023-04-15T18:08:05.887Z,6.20
2023-04-15T18:11:07.857Z,3.50
2023-04-15T18:14:09.121Z,4.05
2023-04-15T18:17:10.776Z,3.63
2023-04-15T18:20:12.841Z,4.35
2023-04-15T18:23:14.597Z,4.38
2023-04-15T18:26:16.005Z,4.13
2023-04-15T18:29:18.444Z,3.72
2023-04-15T18:32:19.749Z,2.75
2023-04-15T18:35:21.243Z,3.17
2023-04-15T18:38:22.710Z,2.95
2023-04-15T18:41:25.439Z,4.05
2023-04-15T18:44:26.812Z,5.22
2023-04-15T18:47:28.188Z,5.28
2023-04-15T18:50:29.517Z,3.88
2023-04-15T18:53:31.015Z,3.38
2023-04-15T18:56:32.264Z,4.43
2023-04-15T18:59:33.806Z,5.10
2023-04-15T19:02:35.376Z,5.50
2023-04-15T19:05:36.831Z,4.93
2023-04-15T19:08:38.086Z,5.60
2023-04-15T19:11:39.426Z,6.35
2023-04-15T19:14:41.068Z,6.38
2023-04-15T19:17:42.467Z,5.00
2023-04-15T19:20:43.900Z,5.75
2023-04-15T19:23:45.277Z,6.13
2023-04-15T19:26:50.973Z,5.93
2023-04-15T19:29:52.364Z,5.85
2023-04-15T19:32:53.725Z,5.63
2023-04-15T19:35:55.249Z,5.97
2023-04-15T19:38:56.655Z,4.40
2023-04-15T19:41:58.887Z,6.50
2023-04-15T19:45:00.288Z,5.82
2023-04-15T19:48:01.603Z,6.95
2023-04-15T19:51:02.956Z,6.95
2023-04-15T19:54:04.247Z,6.95
2023-04-15T19:57:05.852Z,6.47
2023-04-15T20:00:08.129Z,5.85
2023-04-15T20:03:09.555Z,6.63
2023-04-15T20:06:11.583Z,5.13
2023-04-15T20:09:13.017Z,5.20
2023-04-15T20:12:50.288Z,5.00
2023-04-15T20:15:35.854Z,4.47
2023-04-15T20:18:37.153Z,5.20
2023-04-15T20:21:38.846Z,4.45
2023-04-15T20:24:40.631Z,6.13
2023-04-15T20:27:41.907Z,4.95
2023-04-15T20:30:43.434Z,5.22
2023-04-15T20:33:44.720Z,6.07
2023-04-15T20:36:46.265Z,5.97
2023-04-15T20:39:47.524Z,5.38
2023-04-15T20:42:48.973Z,6.47
2023-04-15T20:45:50.666Z,5.55
2023-04-15T20:48:51.954Z,5.45
2023-04-15T20:51:53.225Z,4.65
2023-04-15T20:54:54.499Z,5.78
2023-04-15T20:57:56.886Z,7.65
2023-04-15T21:00:58.735Z,6.35
2023-04-15T21:04:00.291Z,5.93
2023-04-15T21:07:01.614Z,5.75
2023-04-15T21:10:03.025Z,5.35
2023-04-15T21:13:04.321Z,6.80
2023-04-15T21:16:05.810Z,6.00
2023-04-15T21:19:07.337Z,4.82
2023-04-15T21:22:08.839Z,4.93
2023-04-15T21:25:10.274Z,5.97
2023-04-15T21:28:11.538Z,4.75
2023-04-15T21:31:12.828Z,5.20
2023-04-15T21:34:14.135Z,4.65
2023-04-15T21:37:15.796Z,7.40
2023-04-15T21:40:18.525Z,3.85
2023-04-15T21:43:21.508Z,3.45
2023-04-15T21:46:25.578Z,5.20
2023-04-15T21:52:35.176Z,3.47
2023-04-15T21:55:36.476Z,3.47
2023-04-15T21:58:37.788Z,4.05
2023-04-15T22:01:39.127Z,5.43
2023-04-15T22:04:40.562Z,4.15
2023-04-15T22:07:41.932Z,3.80
2023-04-15T22:10:43.262Z,3.67
2023-04-15T22:13:44.582Z,3.97
2023-04-15T22:16:46.092Z,4.80
2023-04-15T22:19:47.440Z,4.25
2023-04-15T22:22:48.788Z,5.28
2023-04-15T22:25:55.694Z,4.30
2023-04-15T22:28:56.971Z,4.85
2023-04-15T22:31:58.476Z,3.67
2023-04-15T22:35:00.020Z,4.75
2023-04-15T22:38:01.745Z,4.57
2023-04-15T22:41:02.976Z,3.88
2023-04-15T22:44:04.223Z,3.78
2023-04-15T22:47:05.821Z,3.92
2023-04-15T22:50:07.456Z,4.65
2023-04-15T22:53:08.707Z,5.28
2023-04-15T22:56:09.946Z,4.70
2023-04-15T22:59:11.404Z,6.95
2023-04-15T23:02:12.964Z,4.50
2023-04-15T23:05:14.332Z,4.28
2023-04-15T23:08:15.693Z,4.50
2023-04-15T23:11:17.211Z,5.05
2023-04-15T23:14:18.502Z,5.45
2023-04-15T23:17:19.839Z,5.32
2023-04-15T23:20:21.146Z,3.58
2023-04-15T23:23:22.634Z,5.30
2023-04-15T23:26:23.926Z,5.18
2023-04-15T23:29:25.216Z,4.55
2023-04-15T23:32:27.276Z,5.97
2023-04-15T23:35:28.764Z,5.75
2023-04-15T23:38:30.043Z,5.18
2023-04-15T23:41:31.360Z,5.60
2023-04-15T23:44:32.624Z,8.88
2023-04-15T23:47:33.950Z,7.70
2023-04-15T23:50:35.425Z,6.00
2023-04-15T23:53:36.748Z,4.90
2023-04-15T23:56:38.135Z,4.55
2023-04-15T23:59:39.426Z,5.20
